sensor_id;sensor_type;location;lat;lon;timestamp;pressure;altitude;pressure_sealevel;temperature;humidity
72961;BME280;61141;46.204;19.774;2023-04-06T00:02:35;100582.94;;;-0.54;70.58
72961;BME280;61141;46.204;19.774;2023-04-06T00:05:39;100595.16;;;-0.43;70.86
72961;BME280;61141;46.204;19.774;2023-04-06T00:08:42;100590.44;;;-0.51;70.75
72961;BME280;61141;46.204;19.774;2023-04-06T00:11:45;100592.69;;;-0.58;70.67
72961;BME280;61141;46.204;19.774;2023-04-06T00:14:48;100588.91;;;-0.57;70.54
72961;BME280;61141;46.204;19.774;2023-04-06T00:17:51;100588.31;;;-0.54;70.64
72961;BME280;61141;46.204;19.774;2023-04-06T00:20:54;100589.28;;;-0.45;70.98
72961;BME280;61141;46.204;19.774;2023-04-06T00:23:58;100590.81;;;-0.39;71.17
72961;BME280;61141;46.204;19.774;2023-04-06T00:27:01;100573.41;;;-0.66;70.41
72961;BME280;61141;46.204;19.774;2023-04-06T00:30:05;100587.22;;;-0.72;70.94
72961;BME280;61141;46.204;19.774;2023-04-06T00:33:08;100586.84;;;-0.66;71.67
72961;BME280;61141;46.204;19.774;2023-04-06T00:36:11;100584.06;;;-0.79;71.03
72961;BME280;61141;46.204;19.774;2023-04-06T00:39:14;100577.72;;;-0.88;71.78
72961;BME280;61141;46.204;19.774;2023-04-06T00:42:20;100581.16;;;-0.83;72.06
72961;BME280;61141;46.204;19.774;2023-04-06T00:45:28;100580.66;;;-0.85;71.69
72961;BME280;61141;46.204;19.774;2023-04-06T00:48:31;100561.38;;;-1.15;71.96
72961;BME280;61141;46.204;19.774;2023-04-06T00:51:35;100578.63;;;-1.16;72.78
72961;BME280;61141;46.204;19.774;2023-04-06T00:54:38;100577.62;;;-1.02;73.10
72961;BME280;61141;46.204;19.774;2023-04-06T00:57:41;100573.84;;;-1.01;73.33
72961;BME280;61141;46.204;19.774;2023-04-06T01:00:45;100568.94;;;-1.17;71.51
72961;BME280;61141;46.204;19.774;2023-04-06T01:03:49;100566.69;;;-0.87;72.12
72961;BME280;61141;46.204;19.774;2023-04-06T01:06:53;100562.97;;;-0.91;71.16
72961;BME280;61141;46.204;19.774;2023-04-06T01:09:59;100561.50;;;-0.78;71.10
72961;BME280;61141;46.204;19.774;2023-04-06T01:13:03;100566.44;;;-0.67;70.24
72961;BME280;61141;46.204;19.774;2023-04-06T01:16:10;100560.09;;;-0.76;70.43
72961;BME280;61141;46.204;19.774;2023-04-06T01:19:14;100565.03;;;-0.83;70.84
72961;BME280;61141;46.204;19.774;2023-04-06T01:22:18;100557.44;;;-0.99;70.87
72961;BME280;61141;46.204;19.774;2023-04-06T01:25:21;100544.94;;;-1.09;70.35
72961;BME280;61141;46.204;19.774;2023-04-06T01:28:25;100556.13;;;-1.02;72.15
72961;BME280;61141;46.204;19.774;2023-04-06T01:31:29;100555.09;;;-1.30;71.84
72961;BME280;61141;46.204;19.774;2023-04-06T01:34:32;100543.78;;;-1.27;72.23
72961;BME280;61141;46.204;19.774;2023-04-06T01:37:37;100536.16;;;-1.43;71.96
72961;BME280;61141;46.204;19.774;2023-04-06T01:40:40;100530.09;;;-1.54;72.83
72961;BME280;61141;46.204;19.774;2023-04-06T01:43:44;100543.22;;;-1.24;73.27
72961;BME280;61141;46.204;19.774;2023-04-06T01:46:48;100540.16;;;-1.41;72.34
72961;BME280;61141;46.204;19.774;2023-04-06T01:49:51;100539.63;;;-1.14;72.93
72961;BME280;61141;46.204;19.774;2023-04-06T01:52:55;100542.50;;;-1.10;72.05
72961;BME280;61141;46.204;19.774;2023-04-06T01:55:58;100538.25;;;-1.11;72.80
72961;BME280;61141;46.204;19.774;2023-04-06T01:59:01;100538.19;;;-1.06;72.68
72961;BME280;61141;46.204;19.774;2023-04-06T02:02:08;100540.34;;;-1.32;72.93
72961;BME280;61141;46.204;19.774;2023-04-06T02:05:12;100531.34;;;-1.41;72.62
72961;BME280;61141;46.204;19.774;2023-04-06T02:08:15;100533.31;;;-1.52;72.52
72961;BME280;61141;46.204;19.774;2023-04-06T02:11:18;100514.13;;;-1.64;73.16
72961;BME280;61141;46.204;19.774;2023-04-06T02:14:24;100524.50;;;-1.57;73.86
72961;BME280;61141;46.204;19.774;2023-04-06T02:17:29;100528.53;;;-1.55;74.84
72961;BME280;61141;46.204;19.774;2023-04-06T02:20:31;100526.97;;;-1.37;73.65
72961;BME280;61141;46.204;19.774;2023-04-06T02:23:35;100524.22;;;-1.32;73.81
72961;BME280;61141;46.204;19.774;2023-04-06T02:26:37;100513.72;;;-1.52;73.81
72961;BME280;61141;46.204;19.774;2023-04-06T02:29:40;100498.75;;;-1.58;73.18
72961;BME280;61141;46.204;19.774;2023-04-06T02:32:44;100496.44;;;-1.70;72.11
72961;BME280;61141;46.204;19.774;2023-04-06T02:35:47;100509.28;;;-1.38;72.78
72961;BME280;61141;46.204;19.774;2023-04-06T02:38:50;100518.87;;;-1.56;72.22
72961;BME280;61141;46.204;19.774;2023-04-06T02:41:54;100505.56;;;-1.71;73.61
72961;BME280;61141;46.204;19.774;2023-04-06T02:44:59;100511.09;;;-1.86;73.67
72961;BME280;61141;46.204;19.774;2023-04-06T02:48:03;100509.19;;;-1.81;74.33
72961;BME280;61141;46.204;19.774;2023-04-06T02:51:06;100510.50;;;-1.54;74.41
72961;BME280;61141;46.204;19.774;2023-04-06T02:54:09;100503.06;;;-1.62;73.51
72961;BME280;61141;46.204;19.774;2023-04-06T02:57:12;100502.75;;;-1.80;72.65
72961;BME280;61141;46.204;19.774;2023-04-06T03:00:16;100505.56;;;-1.71;72.98
72961;BME280;61141;46.204;19.774;2023-04-06T03:03:19;100497.34;;;-1.27;73.96
72961;BME280;61141;46.204;19.774;2023-04-06T03:06:23;100492.22;;;-1.76;72.69
72961;BME280;61141;46.204;19.774;2023-04-06T03:09:29;100501.69;;;-1.60;73.34
72961;BME280;61141;46.204;19.774;2023-04-06T03:12:32;100502.31;;;-1.68;72.73
72961;BME280;61141;46.204;19.774;2023-04-06T03:15:36;100505.56;;;-1.71;72.39
72961;BME280;61141;46.204;19.774;2023-04-06T03:18:39;100506.44;;;-1.75;73.39
72961;BME280;61141;46.204;19.774;2023-04-06T03:21:43;100505.94;;;-1.77;73.88
72961;BME280;61141;46.204;19.774;2023-04-06T03:24:46;100515.22;;;-1.94;74.05
72961;BME280;61141;46.204;19.774;2023-04-06T03:27:49;100521.66;;;-1.95;74.01
72961;BME280;61141;46.204;19.774;2023-04-06T03:30:53;100514.66;;;-1.96;74.04
72961;BME280;61141;46.204;19.774;2023-04-06T03:33:57;100520.12;;;-2.06;73.87
72961;BME280;61141;46.204;19.774;2023-04-06T03:37:00;100521.09;;;-1.92;74.65
72961;BME280;61141;46.204;19.774;2023-04-06T03:40:13;100527.12;;;-2.10;74.03
72961;BME280;61141;46.204;19.774;2023-04-06T03:43:17;100529.50;;;-2.03;74.92
72961;BME280;61141;46.204;19.774;2023-04-06T03:46:20;100523.69;;;-2.10;74.86
72961;BME280;61141;46.204;19.774;2023-04-06T03:49:24;100527.22;;;-2.20;75.04
72961;BME280;61141;46.204;19.774;2023-04-06T03:52:28;100523.47;;;-2.19;75.08
72961;BME280;61141;46.204;19.774;2023-04-06T03:55:31;100531.81;;;-2.25;75.70
72961;BME280;61141;46.204;19.774;2023-04-06T03:58:33;100529.03;;;-2.44;75.76
72961;BME280;61141;46.204;19.774;2023-04-06T04:01:37;100530.00;;;-2.30;75.74
72961;BME280;61141;46.204;19.774;2023-04-06T04:04:40;100531.19;;;-2.46;74.92
72961;BME280;61141;46.204;19.774;2023-04-06T04:07:42;100526.38;;;-2.49;75.25
72961;BME280;61141;46.204;19.774;2023-04-06T04:10:47;100532.50;;;-2.44;75.21
72961;BME280;61141;46.204;19.774;2023-04-06T04:13:50;100525.00;;;-2.47;75.32
72961;BME280;61141;46.204;19.774;2023-04-06T04:16:53;100526.75;;;-2.66;74.81
72961;BME280;61141;46.204;19.774;2023-04-06T04:19:56;100533.19;;;-2.67;75.30
72961;BME280;61141;46.204;19.774;2023-04-06T04:23:00;100540.19;;;-2.71;75.85
72961;BME280;61141;46.204;19.774;2023-04-06T04:26:04;100517.38;;;-2.68;76.21
72961;BME280;61141;46.204;19.774;2023-04-06T04:29:09;100527.47;;;-2.55;76.49
72961;BME280;61141;46.204;19.774;2023-04-06T04:32:13;100525.44;;;-2.68;75.68
72961;BME280;61141;46.204;19.774;2023-04-06T04:35:16;100534.97;;;-2.52;76.12
72961;BME280;61141;46.204;19.774;2023-04-06T04:38:19;100537.09;;;-2.49;76.07
72961;BME280;61141;46.204;19.774;2023-04-06T04:41:24;100534.16;;;-2.53;75.93
72961;BME280;61141;46.204;19.774;2023-04-06T04:44:28;100543.72;;;-2.37;75.99
72961;BME280;61141;46.204;19.774;2023-04-06T04:47:31;100541.66;;;-2.50;76.04
72961;BME280;61141;46.204;19.774;2023-04-06T04:50:35;100551.19;;;-2.33;75.84
72961;BME280;61141;46.204;19.774;2023-04-06T04:53:38;100553.09;;;-2.00;75.56
72961;BME280;61141;46.204;19.774;2023-04-06T04:56:42;100557.06;;;-1.93;75.93
72961;BME280;61141;46.204;19.774;2023-04-06T04:59:46;100555.53;;;-2.04;75.83
72961;BME280;61141;46.204;19.774;2023-04-06T05:02:51;100558.16;;;-1.94;75.72
72961;BME280;61141;46.204;19.774;2023-04-06T05:05:54;100553.81;;;-1.61;74.72
72961;BME280;61141;46.204;19.774;2023-04-06T05:08:58;100552.34;;;-1.48;74.38
72961;BME280;61141;46.204;19.774;2023-04-06T05:12:03;100552.47;;;-1.35;73.54
72961;BME280;61141;46.204;19.774;2023-04-06T05:15:08;100557.28;;;-1.32;74.25
72961;BME280;61141;46.204;19.774;2023-04-06T05:18:12;100558.69;;;-1.15;73.72
72961;BME280;61141;46.204;19.774;2023-04-06T05:21:15;100549.72;;;-1.06;72.99
72961;BME280;61141;46.204;19.774;2023-04-06T05:24:19;100549.25;;;-0.89;73.32
72961;BME280;61141;46.204;19.774;2023-04-06T05:27:23;100540.72;;;-0.73;72.94
72961;BME280;61141;46.204;19.774;2023-04-06T05:30:26;100547.84;;;-0.44;72.78
72961;BME280;61141;46.204;19.774;2023-04-06T05:33:29;100547.12;;;-0.50;72.16
72961;BME280;61141;46.204;19.774;2023-04-06T05:36:34;100539.63;;;-0.34;72.12
72961;BME280;61141;46.204;19.774;2023-04-06T05:39:38;100544.53;;;-0.04;71.89
72961;BME280;61141;46.204;19.774;2023-04-06T05:42:42;100534.91;;;0.22;71.98
72961;BME280;61141;46.204;19.774;2023-04-06T05:45:45;100535.00;;;0.17;69.85
72961;BME280;61141;46.204;19.774;2023-04-06T05:48:49;100537.59;;;0.82;69.14
72961;BME280;61141;46.204;19.774;2023-04-06T05:51:54;100519.81;;;0.81;68.87
72961;BME280;61141;46.204;19.774;2023-04-06T05:54:58;100530.00;;;1.11;68.41
72961;BME280;61141;46.204;19.774;2023-04-06T05:58:01;100528.34;;;1.37;66.42
72961;BME280;61141;46.204;19.774;2023-04-06T06:01:04;100534.00;;;1.49;66.66
72961;BME280;61141;46.204;19.774;2023-04-06T06:04:09;100534.78;;;1.86;65.11
72961;BME280;61141;46.204;19.774;2023-04-06T06:07:14;100531.66;;;1.92;64.11
72961;BME280;61141;46.204;19.774;2023-04-06T06:10:18;100529.91;;;1.88;63.15
72961;BME280;61141;46.204;19.774;2023-04-06T06:13:23;100527.28;;;2.27;62.72
72961;BME280;61141;46.204;19.774;2023-04-06T06:16:27;100514.81;;;2.40;61.86
72961;BME280;61141;46.204;19.774;2023-04-06T06:19:30;100525.81;;;2.52;60.13
72961;BME280;61141;46.204;19.774;2023-04-06T06:22:34;100522.94;;;2.79;60.30
72961;BME280;61141;46.204;19.774;2023-04-06T06:25:37;100523.91;;;2.91;59.73
72961;BME280;61141;46.204;19.774;2023-04-06T06:28:41;100523.50;;;3.24;59.23
72961;BME280;61141;46.204;19.774;2023-04-06T06:31:44;100522.28;;;3.55;56.49
72961;BME280;61141;46.204;19.774;2023-04-06T06:34:48;100516.47;;;4.17;55.26
72961;BME280;61141;46.204;19.774;2023-04-06T06:37:52;100510.16;;;3.70;55.82
72961;BME280;61141;46.204;19.774;2023-04-06T06:40:56;100516.38;;;3.88;55.38
72961;BME280;61141;46.204;19.774;2023-04-06T06:44:00;100515.41;;;4.01;54.91
72961;BME280;61141;46.204;19.774;2023-04-06T06:47:04;100517.19;;;3.88;53.00
72961;BME280;61141;46.204;19.774;2023-04-06T06:50:07;100520.97;;;4.22;53.13
72961;BME280;61141;46.204;19.774;2023-04-06T06:53:10;100520.97;;;4.04;53.10
72961;BME280;61141;46.204;19.774;2023-04-06T06:56:14;100515.28;;;4.52;51.37
72961;BME280;61141;46.204;19.774;2023-04-06T06:59:18;100511.09;;;4.63;50.87
72961;BME280;61141;46.204;19.774;2023-04-06T07:02:21;100511.16;;;4.84;50.19
72961;BME280;61141;46.204;19.774;2023-04-06T07:05:24;100515.53;;;4.68;50.29
72961;BME280;61141;46.204;19.774;2023-04-06T07:08:30;100514.91;;;5.00;49.80
72961;BME280;61141;46.204;19.774;2023-04-06T07:11:33;100513.03;;;4.92;48.31
72961;BME280;61141;46.204;19.774;2023-04-06T07:14:36;100512.09;;;5.17;49.20
72961;BME280;61141;46.204;19.774;2023-04-06T07:17:39;100515.63;;;5.39;48.85
72961;BME280;61141;46.204;19.774;2023-04-06T07:20:48;100503.94;;;4.59;48.82
72961;BME280;61141;46.204;19.774;2023-04-06T07:23:51;100511.28;;;5.46;47.40
72961;BME280;61141;46.204;19.774;2023-04-06T07:26:54;100516.88;;;5.20;49.28
72961;BME280;61141;46.204;19.774;2023-04-06T07:29:59;100519.91;;;5.69;48.04
72961;BME280;61141;46.204;19.774;2023-04-06T07:33:02;100510.81;;;4.94;47.51
72961;BME280;61141;46.204;19.774;2023-04-06T07:36:05;100509.13;;;5.72;49.46
72961;BME280;61141;46.204;19.774;2023-04-06T07:39:09;100499.00;;;5.81;48.36
72961;BME280;61141;46.204;19.774;2023-04-06T07:42:12;100500.78;;;5.98;45.32
72961;BME280;61141;46.204;19.774;2023-04-06T07:45:15;100501.06;;;5.84;45.14
72961;BME280;61141;46.204;19.774;2023-04-06T07:48:18;100493.97;;;5.51;45.69
72961;BME280;61141;46.204;19.774;2023-04-06T07:51:21;100493.00;;;6.54;44.72
72961;BME280;61141;46.204;19.774;2023-04-06T07:54:24;100498.75;;;6.40;45.68
72961;BME280;61141;46.204;19.774;2023-04-06T07:57:27;100496.84;;;6.40;44.83
72961;BME280;61141;46.204;19.774;2023-04-06T08:00:31;100500.22;;;6.37;45.23
72961;BME280;61141;46.204;19.774;2023-04-06T08:03:35;100489.50;;;6.77;43.07
72961;BME280;61141;46.204;19.774;2023-04-06T08:06:38;100498.44;;;7.02;43.82
72961;BME280;61141;46.204;19.774;2023-04-06T08:09:41;100489.16;;;6.67;42.87
72961;BME280;61141;46.204;19.774;2023-04-06T08:12:43;100488.22;;;7.23;43.15
72961;BME280;61141;46.204;19.774;2023-04-06T08:15:46;100490.31;;;7.82;43.15
72961;BME280;61141;46.204;19.774;2023-04-06T08:18:49;100488.91;;;8.00;41.39
72961;BME280;61141;46.204;19.774;2023-04-06T08:21:53;100477.13;;;6.80;41.53
72961;BME280;61141;46.204;19.774;2023-04-06T08:24:55;100481.47;;;7.45;41.51
72961;BME280;61141;46.204;19.774;2023-04-06T08:27:58;100480.22;;;7.82;41.31
72961;BME280;61141;46.204;19.774;2023-04-06T08:31:05;100480.97;;;7.15;42.00
72961;BME280;61141;46.204;19.774;2023-04-06T08:34:08;100476.59;;;7.78;40.57
72961;BME280;61141;46.204;19.774;2023-04-06T08:37:15;100476.38;;;7.99;39.88
72961;BME280;61141;46.204;19.774;2023-04-06T08:40:18;100472.88;;;7.70;41.43
72961;BME280;61141;46.204;19.774;2023-04-06T08:43:22;100469.03;;;8.15;40.72
72961;BME280;61141;46.204;19.774;2023-04-06T08:46:26;100477.63;;;8.29;38.60
72961;BME280;61141;46.204;19.774;2023-04-06T08:49:34;100480.97;;;8.38;39.33
72961;BME280;61141;46.204;19.774;2023-04-06T08:52:40;100471.03;;;8.46;38.14
72961;BME280;61141;46.204;19.774;2023-04-06T08:55:45;100475.38;;;8.19;37.87
72961;BME280;61141;46.204;19.774;2023-04-06T08:58:49;100473.97;;;8.25;38.42
72961;BME280;61141;46.204;19.774;2023-04-06T09:01:55;100467.34;;;8.69;38.93
72961;BME280;61141;46.204;19.774;2023-04-06T09:05:00;100468.22;;;9.24;37.96
72961;BME280;61141;46.204;19.774;2023-04-06T09:08:04;100466.16;;;9.02;38.07
72961;BME280;61141;46.204;19.774;2023-04-06T09:11:08;100455.09;;;8.63;37.71
72961;BME280;61141;46.204;19.774;2023-04-06T09:14:11;100454.37;;;8.66;38.96
72961;BME280;61141;46.204;19.774;2023-04-06T09:17:28;100453.16;;;9.14;38.01
72961;BME280;61141;46.204;19.774;2023-04-06T09:20:33;100450.53;;;9.37;37.48
72961;BME280;61141;46.204;19.774;2023-04-06T09:23:38;100441.41;;;8.95;35.98
72961;BME280;61141;46.204;19.774;2023-04-06T09:26:45;100446.41;;;8.93;36.72
72961;BME280;61141;46.204;19.774;2023-04-06T09:29:49;100450.69;;;9.25;36.65
72961;BME280;61141;46.204;19.774;2023-04-06T09:32:54;100454.09;;;9.03;37.88
72961;BME280;61141;46.204;19.774;2023-04-06T09:35:58;100440.59;;;9.29;36.47
72961;BME280;61141;46.204;19.774;2023-04-06T09:39:03;100430.25;;;9.76;37.75
72961;BME280;61141;46.204;19.774;2023-04-06T09:42:06;100428.28;;;9.96;36.04
72961;BME280;61141;46.204;19.774;2023-04-06T09:45:09;100430.69;;;10.20;36.50
72961;BME280;61141;46.204;19.774;2023-04-06T09:48:12;100430.53;;;9.90;35.91
72961;BME280;61141;46.204;19.774;2023-04-06T09:51:16;100424.41;;;9.59;36.86
72961;BME280;61141;46.204;19.774;2023-04-06T09:54:22;100415.34;;;9.74;37.57
72961;BME280;61141;46.204;19.774;2023-04-06T09:57:28;100421.03;;;10.26;36.04
72961;BME280;61141;46.204;19.774;2023-04-06T10:00:43;100414.81;;;10.78;36.94
72961;BME280;61141;46.204;19.774;2023-04-06T10:07:26;100417.91;;;10.50;35.30
72961;BME280;61141;46.204;19.774;2023-04-06T10:10:29;100399.59;;;10.54;35.37
72961;BME280;61141;46.204;19.774;2023-04-06T10:13:33;100403.72;;;10.68;35.67
72961;BME280;61141;46.204;19.774;2023-04-06T10:16:36;100402.69;;;10.30;35.51
72961;BME280;61141;46.204;19.774;2023-04-06T10:19:59;100396.94;;;10.13;35.66
72961;BME280;61141;46.204;19.774;2023-04-06T10:23:19;100394.00;;;10.47;35.44
72961;BME280;61141;46.204;19.774;2023-04-06T10:26:23;100392.03;;;10.02;35.88
72961;BME280;61141;46.204;19.774;2023-04-06T10:29:26;100392.63;;;9.92;35.62
72961;BME280;61141;46.204;19.774;2023-04-06T10:32:34;100373.28;;;10.50;35.74
72961;BME280;61141;46.204;19.774;2023-04-06T10:35:47;100382.22;;;10.43;35.44
72961;BME280;61141;46.204;19.774;2023-04-06T10:38:55;100374.66;;;10.89;35.45
72961;BME280;61141;46.204;19.774;2023-04-06T10:42:06;100378.38;;;10.74;33.80
72961;BME280;61141;46.204;19.774;2023-04-06T10:45:25;100363.88;;;10.47;35.55
72961;BME280;61141;46.204;19.774;2023-04-06T10:48:44;100368.06;;;10.94;34.07
72961;BME280;61141;46.204;19.774;2023-04-06T10:51:56;100355.78;;;9.64;33.91
72961;BME280;61141;46.204;19.774;2023-04-06T10:54:59;100359.91;;;10.19;34.48
72961;BME280;61141;46.204;19.774;2023-04-06T10:58:06;100347.66;;;10.35;34.53
72961;BME280;61141;46.204;19.774;2023-04-06T11:01:10;100345.28;;;10.34;34.50
72961;BME280;61141;46.204;19.774;2023-04-06T11:04:17;100347.44;;;9.37;34.80
72961;BME280;61141;46.204;19.774;2023-04-06T11:07:28;100340.28;;;9.94;35.77
72961;BME280;61141;46.204;19.774;2023-04-06T11:10:33;100353.78;;;10.51;35.78
72961;BME280;61141;46.204;19.774;2023-04-06T11:13:41;100334.22;;;10.27;34.46
72961;BME280;61141;46.204;19.774;2023-04-06T11:16:46;100308.97;;;10.14;34.49
72961;BME280;61141;46.204;19.774;2023-04-06T11:19:50;100321.38;;;10.31;34.34
72961;BME280;61141;46.204;19.774;2023-04-06T11:22:53;100327.81;;;10.68;33.98
72961;BME280;61141;46.204;19.774;2023-04-06T11:25:56;100326.16;;;10.37;33.55
72961;BME280;61141;46.204;19.774;2023-04-06T11:28:59;100329.69;;;10.38;33.85
72961;BME280;61141;46.204;19.774;2023-04-06T11:32:04;100317.59;;;9.71;33.92
72961;BME280;61141;46.204;19.774;2023-04-06T11:35:32;100320.84;;;10.22;33.37
72961;BME280;61141;46.204;19.774;2023-04-06T11:38:38;100322.84;;;10.51;33.59
72961;BME280;61141;46.204;19.774;2023-04-06T11:41:42;100310.53;;;9.47;34.59
72961;BME280;61141;46.204;19.774;2023-04-06T11:44:51;100301.34;;;8.98;34.44
72961;BME280;61141;46.204;19.774;2023-04-06T11:47:59;100310.00;;;9.83;34.28
72961;BME280;61141;46.204;19.774;2023-04-06T11:51:02;100313.00;;;9.33;33.34
72961;BME280;61141;46.204;19.774;2023-04-06T11:54:07;100310.09;;;9.26;33.01
72961;BME280;61141;46.204;19.774;2023-04-06T11:57:10;100298.69;;;8.82;33.98
72961;BME280;61141;46.204;19.774;2023-04-06T12:00:13;100304.50;;;8.61;34.66
72961;BME280;61141;46.204;19.774;2023-04-06T12:03:17;100300.03;;;9.49;35.24
72961;BME280;61141;46.204;19.774;2023-04-06T12:06:20;100298.88;;;10.18;33.81
72961;BME280;61141;46.204;19.774;2023-04-06T12:09:23;100298.88;;;10.18;32.71
72961;BME280;61141;46.204;19.774;2023-04-06T12:12:26;100299.88;;;10.59;31.97
72961;BME280;61141;46.204;19.774;2023-04-06T12:15:29;100290.00;;;9.79;32.47
72961;BME280;61141;46.204;19.774;2023-04-06T12:18:32;100277.63;;;9.21;34.23
72961;BME280;61141;46.204;19.774;2023-04-06T12:21:36;100279.62;;;10.67;33.93
72961;BME280;61141;46.204;19.774;2023-04-06T12:24:39;100297.03;;;9.35;33.83
72961;BME280;61141;46.204;19.774;2023-04-06T12:27:42;100271.94;;;9.97;33.00
72961;BME280;61141;46.204;19.774;2023-04-06T12:30:47;100273.75;;;10.65;33.04
72961;BME280;61141;46.204;19.774;2023-04-06T12:33:50;100275.63;;;10.09;33.01
72961;BME280;61141;46.204;19.774;2023-04-06T12:36:53;100269.22;;;9.75;33.55
72961;BME280;61141;46.204;19.774;2023-04-06T12:39:56;100272.16;;;8.63;34.95
72961;BME280;61141;46.204;19.774;2023-04-06T12:42:59;100254.41;;;8.73;34.88
72961;BME280;61141;46.204;19.774;2023-04-06T12:46:02;100258.41;;;9.59;34.14
72961;BME280;61141;46.204;19.774;2023-04-06T12:49:04;100261.84;;;9.56;33.63
72961;BME280;61141;46.204;19.774;2023-04-06T12:52:07;100255.53;;;9.52;33.66
72961;BME280;61141;46.204;19.774;2023-04-06T12:55:10;100264.37;;;10.14;33.86
72961;BME280;61141;46.204;19.774;2023-04-06T12:58:13;100253.13;;;9.47;34.24
72961;BME280;61141;46.204;19.774;2023-04-06T13:01:17;100234.44;;;9.75;34.49
72961;BME280;61141;46.204;19.774;2023-04-06T13:04:20;100229.88;;;9.15;34.75
72961;BME280;61141;46.204;19.774;2023-04-06T13:07:23;100255.06;;;9.47;35.27
72961;BME280;61141;46.204;19.774;2023-04-06T13:10:26;100259.84;;;8.92;35.48
72961;BME280;61141;46.204;19.774;2023-04-06T13:13:30;100242.44;;;10.10;35.00
72961;BME280;61141;46.204;19.774;2023-04-06T13:16:34;100249.81;;;10.32;33.94
72961;BME280;61141;46.204;19.774;2023-04-06T13:19:37;100243.44;;;10.25;35.36
72961;BME280;61141;46.204;19.774;2023-04-06T13:22:40;100238.44;;;9.81;34.75
72961;BME280;61141;46.204;19.774;2023-04-06T13:25:43;100232.28;;;10.37;34.93
72961;BME280;61141;46.204;19.774;2023-04-06T13:28:46;100215.44;;;9.86;34.16
72961;BME280;61141;46.204;19.774;2023-04-06T13:31:48;100231.53;;;10.14;34.89
72961;BME280;61141;46.204;19.774;2023-04-06T13:34:54;100239.78;;;9.45;34.99
72961;BME280;61141;46.204;19.774;2023-04-06T13:37:57;100237.63;;;9.55;35.20
72961;BME280;61141;46.204;19.774;2023-04-06T13:41:00;100224.72;;;9.78;35.43
72961;BME280;61141;46.204;19.774;2023-04-06T13:44:03;100220.25;;;9.92;35.30
72961;BME280;61141;46.204;19.774;2023-04-06T13:47:06;100223.47;;;9.98;34.93
72961;BME280;61141;46.204;19.774;2023-04-06T13:50:09;100215.22;;;8.84;36.67
72961;BME280;61141;46.204;19.774;2023-04-06T13:53:13;100215.81;;;9.58;36.32
72961;BME280;61141;46.204;19.774;2023-04-06T13:56:16;100208.50;;;9.20;36.20
72961;BME280;61141;46.204;19.774;2023-04-06T13:59:19;100207.06;;;9.49;35.68
72961;BME280;61141;46.204;19.774;2023-04-06T14:02:22;100215.16;;;9.00;36.81
72961;BME280;61141;46.204;19.774;2023-04-06T14:05:33;100199.94;;;9.44;36.36
72961;BME280;61141;46.204;19.774;2023-04-06T14:08:36;100203.84;;;9.66;35.55
72961;BME280;61141;46.204;19.774;2023-04-06T14:11:39;100209.91;;;9.33;35.59
72961;BME280;61141;46.204;19.774;2023-04-06T14:14:41;100199.38;;;9.13;35.61
72961;BME280;61141;46.204;19.774;2023-04-06T14:17:44;100189.19;;;9.10;35.60
72961;BME280;61141;46.204;19.774;2023-04-06T14:20:57;100203.09;;;9.24;36.00
72961;BME280;61141;46.204;19.774;2023-04-06T14:24:01;100205.19;;;9.30;35.61
72961;BME280;61141;46.204;19.774;2023-04-06T14:27:04;100205.78;;;9.43;35.82
72961;BME280;61141;46.204;19.774;2023-04-06T14:30:07;100191.59;;;9.15;34.87
72961;BME280;61141;46.204;19.774;2023-04-06T14:33:14;100207.53;;;9.32;35.03
72961;BME280;61141;46.204;19.774;2023-04-06T14:36:18;100218.09;;;9.11;35.28
72961;BME280;61141;46.204;19.774;2023-04-06T14:39:20;100220.25;;;9.02;34.82
72961;BME280;61141;46.204;19.774;2023-04-06T14:42:23;100217.28;;;9.10;34.88
72961;BME280;61141;46.204;19.774;2023-04-06T14:45:26;100209.22;;;8.95;35.62
72961;BME280;61141;46.204;19.774;2023-04-06T14:48:29;100214.88;;;9.28;35.84
72961;BME280;61141;46.204;19.774;2023-04-06T14:51:34;100219.84;;;8.61;36.84
72961;BME280;61141;46.204;19.774;2023-04-06T14:54:37;100223.00;;;7.94;38.16
72961;BME280;61141;46.204;19.774;2023-04-06T14:57:40;100226.19;;;7.80;39.63
72961;BME280;61141;46.204;19.774;2023-04-06T15:00:44;100233.63;;;8.14;40.12
72961;BME280;61141;46.204;19.774;2023-04-06T15:03:47;100226.16;;;8.11;40.04
72961;BME280;61141;46.204;19.774;2023-04-06T15:06:50;100233.81;;;8.06;39.71
72961;BME280;61141;46.204;19.774;2023-04-06T15:09:53;100248.88;;;8.00;40.09
72961;BME280;61141;46.204;19.774;2023-04-06T15:12:56;100248.78;;;7.49;41.66
72961;BME280;61141;46.204;19.774;2023-04-06T15:15:58;100262.59;;;7.13;42.88
72961;BME280;61141;46.204;19.774;2023-04-06T15:19:03;100254.25;;;7.81;42.89
72961;BME280;61141;46.204;19.774;2023-04-06T15:22:06;100254.59;;;7.63;42.39
72961;BME280;61141;46.204;19.774;2023-04-06T15:25:09;100258.28;;;7.55;43.24
72961;BME280;61141;46.204;19.774;2023-04-06T15:28:12;100260.31;;;7.43;42.24
72961;BME280;61141;46.204;19.774;2023-04-06T15:31:16;100270.84;;;7.29;42.51
72961;BME280;61141;46.204;19.774;2023-04-06T15:34:37;100268.59;;;7.19;42.83
72961;BME280;61141;46.204;19.774;2023-04-06T15:37:40;100282.38;;;7.10;43.66
72961;BME280;61141;46.204;19.774;2023-04-06T15:40:45;100295.97;;;7.10;44.34
72961;BME280;61141;46.204;19.774;2023-04-06T15:43:49;100289.59;;;6.90;45.45
72961;BME280;61141;46.204;19.774;2023-04-06T15:46:52;100306.25;;;6.61;46.09
72961;BME280;61141;46.204;19.774;2023-04-06T15:49:55;100304.56;;;6.32;46.93
72961;BME280;61141;46.204;19.774;2023-04-06T15:52:58;100317.28;;;6.16;48.73
72961;BME280;61141;46.204;19.774;2023-04-06T15:56:03;100314.44;;;6.25;48.83
72961;BME280;61141;46.204;19.774;2023-04-06T15:59:07;100317.28;;;6.28;49.25
72961;BME280;61141;46.204;19.774;2023-04-06T16:02:10;100329.28;;;6.03;51.80